createdAt,value
2018-02-02T00:00:45.036Z,13.80
2018-02-02T00:01:44.995Z,11.00
2018-02-02T00:02:44.955Z,13.20
2018-02-02T00:03:44.911Z,15.80
2018-02-02T00:04:44.869Z,10.70
2018-02-02T00:05:44.831Z,16.60
2018-02-02T00:06:44.793Z,17.80
2018-02-02T00:07:44.752Z,11.90
2018-02-02T00:08:44.711Z,10.70
2018-02-02T00:09:44.667Z,10.50
2018-02-02T00:10:44.627Z,11.00
2018-02-02T00:11:44.589Z,16.20
2018-02-02T00:12:44.547Z,14.50
2018-02-02T00:13:44.503Z,20.80
2018-02-02T00:14:44.464Z,15.90
2018-02-02T00:15:44.426Z,13.60
2018-02-02T00:16:44.384Z,14.60
2018-02-02T00:17:44.344Z,18.30
2018-02-02T00:18:44.302Z,14.90
2018-02-02T00:19:44.260Z,14.90
2018-02-02T00:20:44.219Z,11.30
2018-02-02T00:21:44.180Z,17.00
2018-02-02T00:22:44.138Z,16.50
2018-02-02T00:23:44.099Z,9.40
2018-02-02T00:24:44.052Z,14.50
2018-02-02T00:25:44.018Z,9.10
2018-02-02T00:26:43.976Z,16.00
2018-02-02T00:27:43.941Z,13.20
2018-02-02T00:28:43.895Z,15.10
2018-02-02T00:29:43.853Z,11.70
2018-02-02T00:30:43.812Z,13.90
2018-02-02T00:31:43.772Z,12.20
2018-02-02T00:32:43.735Z,16.80
2018-02-02T00:33:43.691Z,11.80
2018-02-02T00:34:43.653Z,18.20
2018-02-02T00:35:43.608Z,15.70
2018-02-02T00:36:43.568Z,15.90
2018-02-02T00:37:43.526Z,11.90
2018-02-02T00:38:43.486Z,13.00
2018-02-02T00:39:43.446Z,18.10
2018-02-02T00:40:43.408Z,15.00
2018-02-02T00:41:43.368Z,13.20
2018-02-02T00:42:43.332Z,14.70
2018-02-02T00:43:43.287Z,13.30
2018-02-02T00:44:43.245Z,16.40
2018-02-02T00:45:45.950Z,15.10
2018-02-02T00:46:43.180Z,13.90
2018-02-02T00:47:43.125Z,19.60
2018-02-02T00:48:43.088Z,14.40
2018-02-02T00:49:43.068Z,13.10
2018-02-02T00:50:43.001Z,10.20
2018-02-02T00:51:42.961Z,14.40
2018-02-02T00:52:42.929Z,18.40
2018-02-02T00:53:42.901Z,16.40
2018-02-02T00:54:42.837Z,12.30
2018-02-02T00:55:42.801Z,14.10
2018-02-02T00:56:42.758Z,15.80
2018-02-02T00:57:42.718Z,13.70
2018-02-02T00:58:42.676Z,10.40
2018-02-02T00:59:42.638Z,15.10
2018-02-02T01:00:42.597Z,11.80
2018-02-02T01:01:42.554Z,13.80
2018-02-02T01:02:42.513Z,17.70
2018-02-02T01:03:42.474Z,13.70
2018-02-02T01:04:42.432Z,10.80
2018-02-02T01:05:42.393Z,14.10
2018-02-02T01:06:42.360Z,15.00
2018-02-02T01:07:42.313Z,16.30
2018-02-02T01:08:42.272Z,12.20
2018-02-02T01:09:42.232Z,17.80
2018-02-02T01:10:42.192Z,14.90
2018-02-02T01:11:42.150Z,17.30
2018-02-02T01:12:42.145Z,15.60
2018-02-02T01:13:42.068Z,10.40
2018-02-02T01:14:42.033Z,15.70
2018-02-02T01:15:41.988Z,14.40
2018-02-02T01:16:41.947Z,17.20
2018-02-02T01:17:41.908Z,15.20
2018-02-02T01:18:41.866Z,15.30
2018-02-02T01:19:41.826Z,11.50
2018-02-02T01:20:41.812Z,14.50
2018-02-02T01:21:41.745Z,10.70
2018-02-02T01:22:41.707Z,15.90
2018-02-02T01:23:41.666Z,16.70
2018-02-02T01:24:41.625Z,14.60
2018-02-02T01:25:41.584Z,15.80
2018-02-02T01:26:41.545Z,16.00
2018-02-02T01:27:41.505Z,16.50
2018-02-02T01:28:41.464Z,14.70
2018-02-02T01:29:41.428Z,12.70
2018-02-02T01:30:41.399Z,14.30
2018-02-02T01:31:41.342Z,14.70
2018-02-02T01:32:41.299Z,15.20
2018-02-02T01:33:41.261Z,20.20
2018-02-02T01:34:41.220Z,15.20
2018-02-02T01:35:41.180Z,12.00
2018-02-02T01:36:41.140Z,19.40
2018-02-02T01:37:41.100Z,17.10
2018-02-02T01:38:41.058Z,15.60
2018-02-02T01:39:41.021Z,16.50
2018-02-02T01:40:40.979Z,13.10
2018-02-02T01:41:40.934Z,14.80
2018-02-02T01:42:40.899Z,14.80
2018-02-02T01:43:40.859Z,14.40
2018-02-02T01:44:40.819Z,16.90
2018-02-02T01:45:40.779Z,13.70
2018-02-02T01:46:40.741Z,14.70
2018-02-02T01:47:40.706Z,14.90
2018-02-02T01:48:40.658Z,12.80
2018-02-02T01:49:40.616Z,16.30
2018-02-02T01:50:40.603Z,13.70
2018-02-02T01:51:40.534Z,13.70
2018-02-02T01:52:40.497Z,15.00
2018-02-02T01:53:40.466Z,13.70
2018-02-02T01:54:40.415Z,18.70
2018-02-02T01:55:40.383Z,16.60
2018-02-02T01:56:40.335Z,18.30
2018-02-02T01:57:40.295Z,19.80
2018-02-02T01:58:40.283Z,19.20
2018-02-02T01:59:40.224Z,22.00
2018-02-02T02:00:40.173Z,18.00
2018-02-02T02:01:40.162Z,14.60
2018-02-02T02:02:40.094Z,17.60
2018-02-02T02:03:40.073Z,12.70
2018-02-02T02:04:40.012Z,18.90
2018-02-02T02:05:39.972Z,11.20
2018-02-02T02:06:39.943Z,16.20
2018-02-02T02:07:39.928Z,14.20
2018-02-02T02:08:39.848Z,14.40
2018-02-02T02:09:39.825Z,14.60
2018-02-02T02:10:39.783Z,15.40
2018-02-02T02:11:39.776Z,17.70
2018-02-02T02:12:39.685Z,17.40
2018-02-02T02:13:39.677Z,13.10
2018-02-02T02:14:39.615Z,13.80
2018-02-02T02:15:39.567Z,14.60
2018-02-02T02:16:39.527Z,17.20
2018-02-02T02:17:40.455Z,15.70
2018-02-02T02:18:39.475Z,16.60
2018-02-02T02:19:39.447Z,13.90
2018-02-02T02:20:39.368Z,19.40
2018-02-02T02:21:39.338Z,20.30
2018-02-02T02:22:39.314Z,16.30
2018-02-02T02:23:39.265Z,14.80
2018-02-02T02:24:39.205Z,17.20
2018-02-02T02:25:39.194Z,17.50
2018-02-02T02:26:39.124Z,16.80
2018-02-02T02:27:39.085Z,13.90
2018-02-02T02:28:39.079Z,16.80
2018-02-02T02:29:39.009Z,19.10
2018-02-02T02:30:38.961Z,13.30
2018-02-02T02:31:38.922Z,19.50
2018-02-02T02:32:38.892Z,14.90
2018-02-02T02:33:38.844Z,17.50
2018-02-02T02:34:38.809Z,14.40
2018-02-02T02:35:38.798Z,15.60
2018-02-02T02:36:38.780Z,12.20
2018-02-02T02:37:38.695Z,13.90
2018-02-02T02:38:38.647Z,17.70
2018-02-02T02:39:38.619Z,18.30
2018-02-02T02:40:38.580Z,11.90
2018-02-02T02:41:38.539Z,18.10
2018-02-02T02:42:38.498Z,14.20
2018-02-02T02:43:38.467Z,19.40
2018-02-02T02:44:38.415Z,21.60
2018-02-02T02:45:38.406Z,17.20
2018-02-02T02:46:38.316Z,17.10
2018-02-02T02:47:38.296Z,21.70
2018-02-02T02:48:38.249Z,20.30
2018-02-02T02:49:38.198Z,17.80
2018-02-02T02:50:38.156Z,18.90
2018-02-02T02:51:38.115Z,17.60
2018-02-02T02:52:38.075Z,19.50
2018-02-02T02:53:38.048Z,15.20
2018-02-02T02:54:37.996Z,18.50
2018-02-02T02:55:37.954Z,18.10
2018-02-02T02:56:37.913Z,18.80
2018-02-02T02:57:37.877Z,17.00
2018-02-02T02:58:37.834Z,19.10
2018-02-02T02:59:37.794Z,18.90
2018-02-02T03:00:37.754Z,16.50
2018-02-02T03:01:37.781Z,16.50
2018-02-02T03:02:37.671Z,19.30
2018-02-02T03:03:37.661Z,19.40
2018-02-02T03:04:37.613Z,16.80
2018-02-02T03:05:37.556Z,14.70
2018-02-02T03:06:37.520Z,20.90
2018-02-02T03:07:37.470Z,15.20
2018-02-02T03:08:37.426Z,19.20
2018-02-02T03:09:37.409Z,18.00
2018-02-02T03:10:37.347Z,16.50
2018-02-02T03:11:37.311Z,16.50
2018-02-02T03:12:37.265Z,17.30
2018-02-02T03:13:37.227Z,18.60
2018-02-02T03:14:37.185Z,16.80
2018-02-02T03:15:37.142Z,15.00
2018-02-02T03:16:37.105Z,17.40
2018-02-02T03:17:37.061Z,15.80
2018-02-02T03:18:37.024Z,18.30
2018-02-02T03:19:37.001Z,17.70
2018-02-02T03:20:37.865Z,15.50
2018-02-02T03:21:36.901Z,17.10
2018-02-02T03:22:36.860Z,16.90
2018-02-02T03:23:37.442Z,16.80
2018-02-02T03:24:37.364Z,14.70
2018-02-02T03:25:36.735Z,16.20
2018-02-02T03:26:36.692Z,13.80
2018-02-02T03:27:36.662Z,14.00
2018-02-02T03:28:36.619Z,15.00
2018-02-02T03:29:36.575Z,18.70
2018-02-02T03:30:36.556Z,12.00
2018-02-02T03:31:36.491Z,13.70
2018-02-02T03:32:36.453Z,14.40
2018-02-02T03:33:36.428Z,12.60
2018-02-02T03:34:36.390Z,15.00
2018-02-02T03:35:36.360Z,15.00
2018-02-02T03:36:36.293Z,14.70
2018-02-02T03:37:36.247Z,20.10
2018-02-02T03:38:36.206Z,15.10
2018-02-02T03:39:36.165Z,13.00
2018-02-02T03:40:36.152Z,14.40
2018-02-02T03:41:36.084Z,17.10
2018-02-02T03:42:36.052Z,13.80
2018-02-02T03:43:36.003Z,16.00
2018-02-02T03:44:35.966Z,12.80
2018-02-02T03:45:35.921Z,12.00
2018-02-02T03:46:35.882Z,12.60
2018-02-02T03:47:35.839Z,11.70
2018-02-02T03:48:35.798Z,15.00
2018-02-02T03:49:35.772Z,17.40
2018-02-02T03:50:35.720Z,16.00
2018-02-02T03:51:35.689Z,13.60
2018-02-02T03:52:35.634Z,15.30
2018-02-02T03:53:35.605Z,17.20
2018-02-02T03:54:35.555Z,14.10
2018-02-02T03:55:35.512Z,13.20
2018-02-02T03:56:35.474Z,12.50
2018-02-02T03:57:35.430Z,16.00
2018-02-02T03:58:35.394Z,12.70
2018-02-02T03:59:35.351Z,13.50
2018-02-02T04:00:35.307Z,15.40
2018-02-02T04:01:35.272Z,10.80
2018-02-02T04:02:35.227Z,12.50
2018-02-02T04:03:35.188Z,11.90
2018-02-02T04:04:35.143Z,12.30
2018-02-02T04:05:35.127Z,11.40
2018-02-02T04:06:35.066Z,11.40
2018-02-02T04:07:35.024Z,8.50
2018-02-02T04:08:34.984Z,12.40
2018-02-02T04:09:34.984Z,11.80
2018-02-02T04:10:34.911Z,11.00
2018-02-02T04:11:34.862Z,8.90
2018-02-02T04:12:34.820Z,13.10
2018-02-02T04:13:34.777Z,10.70
2018-02-02T04:14:34.757Z,10.90
2018-02-02T04:15:34.696Z,11.30
2018-02-02T04:16:34.671Z,9.70
2018-02-02T04:17:34.615Z,9.50
2018-02-02T04:18:34.574Z,8.20
2018-02-02T04:19:34.532Z,10.50
2018-02-02T04:20:34.494Z,9.30
2018-02-02T04:21:34.448Z,9.10
2018-02-02T04:22:34.427Z,10.20
2018-02-02T04:23:34.367Z,9.10
2018-02-02T04:24:34.349Z,9.20
2018-02-02T04:25:34.288Z,7.50
2018-02-02T04:26:34.247Z,7.80
2018-02-02T04:27:34.206Z,9.00
2018-02-02T04:28:34.203Z,9.60
2018-02-02T04:29:34.125Z,9.40
2018-02-02T04:30:34.118Z,11.30
2018-02-02T04:31:34.078Z,11.50
2018-02-02T04:32:34.002Z,7.70
2018-02-02T04:33:33.961Z,8.30
2018-02-02T04:34:33.921Z,8.10
2018-02-02T04:35:33.882Z,7.40
2018-02-02T04:36:33.837Z,10.40
2018-02-02T04:37:33.800Z,6.40
2018-02-02T04:38:33.756Z,7.00
2018-02-02T04:39:33.717Z,7.60
2018-02-02T04:40:33.675Z,6.70
2018-02-02T04:41:33.634Z,8.50
2018-02-02T04:42:33.621Z,9.50
2018-02-02T04:43:33.573Z,9.40
2018-02-02T04:44:33.509Z,6.20
2018-02-02T04:45:33.475Z,11.20
2018-02-02T04:46:33.431Z,7.80
2018-02-02T04:47:33.397Z,9.50
2018-02-02T04:48:33.359Z,10.40
2018-02-02T04:49:33.320Z,9.40
2018-02-02T04:50:33.266Z,13.30
2018-02-02T04:51:33.226Z,13.00
2018-02-02T04:52:33.191Z,11.20
2018-02-02T04:53:33.160Z,13.20
2018-02-02T04:54:33.101Z,10.80
2018-02-02T04:55:33.074Z,8.00
2018-02-02T04:56:33.041Z,9.20
2018-02-02T04:57:32.978Z,11.00
2018-02-02T04:58:32.950Z,15.00
2018-02-02T04:59:32.899Z,9.80
2018-02-02T05:00:32.857Z,13.70
2018-02-02T05:01:32.814Z,13.10
2018-02-02T05:02:32.828Z,15.70
2018-02-02T05:03:32.735Z,12.60
2018-02-02T05:04:32.695Z,15.50
2018-02-02T05:05:32.652Z,13.70
2018-02-02T05:06:32.615Z,17.70
2018-02-02T05:07:32.571Z,19.90
2018-02-02T05:08:32.532Z,16.70
2018-02-02T05:09:32.490Z,21.50
2018-02-02T05:10:32.454Z,18.80
2018-02-02T05:11:32.410Z,18.90
2018-02-02T05:12:32.380Z,18.90
2018-02-02T05:13:32.333Z,19.40
2018-02-02T05:14:32.301Z,21.20
2018-02-02T05:15:32.244Z,20.30
2018-02-02T05:16:32.203Z,20.00
2018-02-02T05:17:32.165Z,22.40
2018-02-02T05:18:32.140Z,20.10
2018-02-02T05:19:32.084Z,17.80
2018-02-02T05:20:32.042Z,25.50
2018-02-02T05:21:32.005Z,19.40
2018-02-02T05:22:31.960Z,32.20
2018-02-02T05:23:31.919Z,23.00
2018-02-02T05:24:31.881Z,20.90
2018-02-02T05:25:31.841Z,23.90
2018-02-02T05:26:31.800Z,24.20
2018-02-02T05:27:31.761Z,22.50
2018-02-02T05:28:31.717Z,27.40
2018-02-02T05:29:31.673Z,20.20
2018-02-02T05:30:31.638Z,24.10
2018-02-02T05:31:31.596Z,30.80
2018-02-02T05:32:31.557Z,28.80
2018-02-02T05:33:31.514Z,22.40
2018-02-02T05:34:31.477Z,22.60
2018-02-02T05:35:31.434Z,25.30
2018-02-02T05:36:31.393Z,22.80
2018-02-02T05:37:31.353Z,22.80
2018-02-02T05:38:31.313Z,30.20
2018-02-02T05:39:31.271Z,22.90
2018-02-02T05:40:31.230Z,26.40
2018-02-02T05:41:31.193Z,22.90
2018-02-02T05:42:31.186Z,28.40
2018-02-02T05:43:31.110Z,27.00
2018-02-02T05:44:31.067Z,26.80
2018-02-02T05:45:31.028Z,28.70
2018-02-02T05:46:30.988Z,31.40
2018-02-02T05:47:30.949Z,27.00
2018-02-02T05:48:30.907Z,29.20
2018-02-02T05:49:30.866Z,28.10
2018-02-02T05:50:30.830Z,29.60
2018-02-02T05:51:30.788Z,26.60
2018-02-02T05:52:30.748Z,28.60
2018-02-02T05:53:30.706Z,23.70
2018-02-02T05:54:30.663Z,27.90
2018-02-02T05:55:30.625Z,24.50
2018-02-02T05:56:30.587Z,26.30
2018-02-02T05:57:30.543Z,29.30
2018-02-02T05:58:30.506Z,35.30
2018-02-02T05:59:30.462Z,30.80
2018-02-02T06:00:30.421Z,24.50
2018-02-02T06:01:30.381Z,28.60
2018-02-02T06:02:30.342Z,27.90
2018-02-02T06:03:30.302Z,28.80
2018-02-02T06:04:30.260Z,27.40
2018-02-02T06:05:30.219Z,27.80
2018-02-02T06:06:30.178Z,25.30
2018-02-02T06:07:30.138Z,27.40
2018-02-02T06:08:30.097Z,23.40
2018-02-02T06:09:30.058Z,28.40
2018-02-02T06:10:30.018Z,29.40
2018-02-02T06:11:29.980Z,27.00
2018-02-02T06:12:29.934Z,24.80
2018-02-02T06:13:29.894Z,29.10
2018-02-02T06:14:29.854Z,23.80
2018-02-02T06:15:29.815Z,23.90
2018-02-02T06:16:29.793Z,28.60
2018-02-02T06:17:29.734Z,28.40
2018-02-02T06:18:29.690Z,26.00
2018-02-02T06:19:29.653Z,26.00
2018-02-02T06:20:29.610Z,34.70
2018-02-02T06:21:29.570Z,26.40
2018-02-02T06:22:29.531Z,30.50
2018-02-02T06:23:29.492Z,26.70
2018-02-02T06:24:29.449Z,24.60
2018-02-02T06:25:29.429Z,24.20
2018-02-02T06:26:29.366Z,28.20
2018-02-02T06:27:29.326Z,24.00
2018-02-02T06:28:29.287Z,26.40
2018-02-02T06:29:29.247Z,26.50
2018-02-02T06:30:29.204Z,32.00
2018-02-02T06:31:29.161Z,30.70
2018-02-02T06:32:29.121Z,23.80
2018-02-02T06:33:29.083Z,28.70
2018-02-02T06:34:29.044Z,28.10
2018-02-02T06:35:29.003Z,27.10
2018-02-02T06:36:28.963Z,23.80
2018-02-02T06:37:28.919Z,28.60
2018-02-02T06:38:28.882Z,28.40
2018-02-02T06:39:28.842Z,24.50
2018-02-02T06:40:28.799Z,26.50
2018-02-02T06:41:28.759Z,32.20
2018-02-02T06:42:28.760Z,26.50
2018-02-02T06:43:28.679Z,28.20
2018-02-02T06:44:28.638Z,31.00
2018-02-02T06:45:28.597Z,28.40
2018-02-02T06:46:28.565Z,26.30
2018-02-02T06:47:28.516Z,29.20
2018-02-02T06:48:28.470Z,29.00
2018-02-02T06:49:28.435Z,25.90
2018-02-02T06:50:28.395Z,30.40
2018-02-02T06:51:28.354Z,25.50
2018-02-02T06:52:28.313Z,29.50
2018-02-02T06:53:28.278Z,30.30
2018-02-02T06:54:28.232Z,28.00
2018-02-02T06:55:28.193Z,30.20
2018-02-02T06:56:28.152Z,33.70
2018-02-02T06:57:28.113Z,27.80
2018-02-02T06:58:28.073Z,24.80
2018-02-02T06:59:28.034Z,40.60
2018-02-02T07:00:27.994Z,28.40
2018-02-02T07:01:27.949Z,31.80
2018-02-02T07:02:27.911Z,29.60
2018-02-02T07:03:27.868Z,36.70
2018-02-02T07:04:27.828Z,28.40
2018-02-02T07:05:27.788Z,28.20
2018-02-02T07:06:27.748Z,26.80
2018-02-02T07:07:27.706Z,24.20
2018-02-02T07:08:27.668Z,27.30
2018-02-02T07:09:27.625Z,38.00
2018-02-02T07:10:27.584Z,35.90
2018-02-02T07:11:27.546Z,32.30
2018-02-02T07:12:27.505Z,27.30
2018-02-02T07:13:27.471Z,27.80
2018-02-02T07:14:27.427Z,33.60
2018-02-02T07:15:27.385Z,30.80
2018-02-02T07:16:27.342Z,30.10
2018-02-02T07:17:27.301Z,26.70
2018-02-02T07:18:27.263Z,21.00
2018-02-02T07:19:27.225Z,28.30
2018-02-02T07:20:27.181Z,27.90
2018-02-02T07:21:27.139Z,25.10
2018-02-02T07:22:27.101Z,28.00
2018-02-02T07:23:27.063Z,27.90
2018-02-02T07:24:27.024Z,23.00
2018-02-02T07:25:26.984Z,24.70
2018-02-02T07:26:26.941Z,26.50
2018-02-02T07:27:26.898Z,27.30
2018-02-02T07:28:26.861Z,29.00
2018-02-02T07:29:26.818Z,28.10
2018-02-02T07:30:26.778Z,22.20
2018-02-02T07:31:26.734Z,27.60
2018-02-02T07:32:26.694Z,26.40
2018-02-02T07:33:26.656Z,23.50
2018-02-02T07:34:26.616Z,26.80
2018-02-02T07:35:26.574Z,30.50
2018-02-02T07:36:26.534Z,27.00
2018-02-02T07:37:26.493Z,27.70
2018-02-02T07:38:26.467Z,29.50
2018-02-02T07:39:26.411Z,24.20
2018-02-02T07:40:26.373Z,29.00
2018-02-02T07:41:26.332Z,29.30
2018-02-02T07:42:26.288Z,32.00
2018-02-02T07:43:26.249Z,30.50
2018-02-02T07:44:26.208Z,28.60
2018-02-02T07:45:26.168Z,32.30
2018-02-02T07:46:26.126Z,34.50
2018-02-02T07:47:26.089Z,29.60
2018-02-02T07:48:26.043Z,28.00
2018-02-02T07:49:26.006Z,31.00
2018-02-02T07:50:25.967Z,28.40
2018-02-02T07:51:25.926Z,30.60
2018-02-02T07:52:25.882Z,32.30
2018-02-02T07:53:25.843Z,32.30
2018-02-02T07:54:25.802Z,30.10
2018-02-02T07:55:25.762Z,27.30
2018-02-02T07:56:25.717Z,28.90
2018-02-02T07:57:25.678Z,30.50
2018-02-02T07:58:25.639Z,33.80
2018-02-02T07:59:25.600Z,23.60
2018-02-02T08:00:25.560Z,33.40
2018-02-02T08:01:25.517Z,28.30
2018-02-02T08:02:25.477Z,29.40
2018-02-02T08:03:25.984Z,29.30
2018-02-02T08:04:25.392Z,27.30
2018-02-02T08:05:25.352Z,31.20
2018-02-02T08:06:25.329Z,28.90
2018-02-02T08:07:25.274Z,29.90
2018-02-02T08:08:25.232Z,25.10
2018-02-02T08:09:25.193Z,32.80
2018-02-02T08:10:25.152Z,32.40
2018-02-02T08:11:25.110Z,31.30
2018-02-02T08:12:25.068Z,31.90
2018-02-02T08:13:25.033Z,28.50
2018-02-02T08:14:24.991Z,31.10
2018-02-02T08:15:24.953Z,27.90
2018-02-02T08:16:24.905Z,27.70
2018-02-02T08:17:24.867Z,22.00
2018-02-02T08:18:24.825Z,29.20
2018-02-02T08:19:24.786Z,27.10
2018-02-02T08:20:24.754Z,29.40
2018-02-02T08:21:24.704Z,27.00
2018-02-02T08:22:24.663Z,28.30
2018-02-02T08:23:24.623Z,29.80
2018-02-02T08:24:24.581Z,21.20
2018-02-02T08:25:24.543Z,30.30
2018-02-02T08:26:24.502Z,26.20
2018-02-02T08:27:24.460Z,30.60
2018-02-02T08:28:24.421Z,24.80
2018-02-02T08:29:24.378Z,24.60
2018-02-02T08:30:24.340Z,26.40
2018-02-02T08:31:24.298Z,23.30
2018-02-02T08:32:24.257Z,24.50
2018-02-02T08:33:24.216Z,25.30
2018-02-02T08:34:24.176Z,22.30
2018-02-02T08:35:24.134Z,22.70
2018-02-02T08:36:24.094Z,19.80
2018-02-02T08:37:24.055Z,18.90
2018-02-02T08:38:24.014Z,20.80
2018-02-02T08:39:23.975Z,20.70
2018-02-02T08:40:23.932Z,16.50
2018-02-02T08:41:23.892Z,20.20
2018-02-02T08:42:23.850Z,16.20
2018-02-02T08:43:23.812Z,15.60
2018-02-02T08:44:23.777Z,15.40
2018-02-02T08:45:23.728Z,15.20
2018-02-02T08:46:23.691Z,12.50
2018-02-02T08:47:23.651Z,14.50
2018-02-02T08:48:23.611Z,12.10
2018-02-02T08:49:23.568Z,16.30
2018-02-02T08:50:23.545Z,13.10
2018-02-02T08:51:23.487Z,14.30
2018-02-02T08:52:23.447Z,13.60
2018-02-02T08:53:23.404Z,12.50
2018-02-02T08:54:23.371Z,12.60
2018-02-02T08:55:23.325Z,15.00
2018-02-02T08:56:23.286Z,11.10
2018-02-02T08:57:23.245Z,12.90
2018-02-02T08:58:23.203Z,9.50
2018-02-02T08:59:23.164Z,10.60
2018-02-02T09:00:23.121Z,12.00
2018-02-02T09:01:23.079Z,10.70
2018-02-02T09:02:23.041Z,9.60
2018-02-02T09:03:22.999Z,8.40
2018-02-02T09:04:22.958Z,10.20
2018-02-02T09:05:22.916Z,11.80
2018-02-02T09:06:22.876Z,11.10
2018-02-02T09:07:22.840Z,10.20
2018-02-02T09:08:22.796Z,9.10
2018-02-02T09:09:22.776Z,9.40
2018-02-02T09:10:22.712Z,8.30
2018-02-02T09:11:22.674Z,9.80
2018-02-02T09:12:22.633Z,9.90
2018-02-02T09:13:22.591Z,9.30
2018-02-02T09:14:22.554Z,10.90
2018-02-02T09:15:22.515Z,11.50
2018-02-02T09:16:22.471Z,11.20
2018-02-02T09:17:22.430Z,10.50
2018-02-02T09:18:22.388Z,12.60
2018-02-02T09:19:22.349Z,12.10
2018-02-02T09:20:22.305Z,9.10
2018-02-02T09:21:22.265Z,9.70
2018-02-02T09:22:22.225Z,13.50
2018-02-02T09:23:22.184Z,15.10
2018-02-02T09:24:22.145Z,8.60
2018-02-02T09:25:22.098Z,12.00
2018-02-02T09:26:22.061Z,11.70
2018-02-02T09:27:22.019Z,10.70
2018-02-02T09:28:21.980Z,10.40
2018-02-02T09:29:21.938Z,10.20
2018-02-02T09:30:21.899Z,12.20
2018-02-02T09:31:21.856Z,10.10
2018-02-02T09:32:21.815Z,10.80
2018-02-02T09:33:21.775Z,10.60
2018-02-02T09:34:21.733Z,11.10
2018-02-02T09:35:21.692Z,12.30
2018-02-02T09:36:21.657Z,9.70
2018-02-02T09:37:21.611Z,11.20
2018-02-02T09:38:21.571Z,12.80
2018-02-02T09:39:21.530Z,10.10
2018-02-02T09:40:21.489Z,6.80
2018-02-02T09:41:21.445Z,7.60
2018-02-02T09:42:21.408Z,12.10
2018-02-02T09:43:21.365Z,10.10
2018-02-02T09:44:21.325Z,11.00
2018-02-02T09:45:21.284Z,9.30
2018-02-02T09:46:21.245Z,9.70
2018-02-02T09:47:21.202Z,8.10
2018-02-02T09:48:21.160Z,10.50
2018-02-02T09:49:21.121Z,8.30
2018-02-02T09:50:21.081Z,8.60
2018-02-02T09:51:21.039Z,9.50
2018-02-02T09:52:20.997Z,19.60
2018-02-02T09:53:20.956Z,9.80
2018-02-02T09:54:20.920Z,11.00
2018-02-02T09:55:20.877Z,7.50
2018-02-02T09:56:20.835Z,10.30
2018-02-02T09:57:20.794Z,9.70
2018-02-02T09:58:20.790Z,9.60
2018-02-02T09:59:20.714Z,10.80
2018-02-02T10:00:20.674Z,9.50
2018-02-02T10:01:20.632Z,10.00
2018-02-02T10:02:20.593Z,12.00
2018-02-02T10:03:20.552Z,10.60
2018-02-02T10:04:20.510Z,9.30
2018-02-02T10:05:20.471Z,8.00
2018-02-02T10:06:20.427Z,8.40
2018-02-02T10:07:20.388Z,10.20
2018-02-02T10:08:20.347Z,11.80
2018-02-02T10:09:20.308Z,12.80
2018-02-02T10:10:20.268Z,16.50
2018-02-02T10:11:20.226Z,14.40
2018-02-02T10:12:20.185Z,11.60
2018-02-02T10:13:20.143Z,10.30
2018-02-02T10:14:20.103Z,9.50
2018-02-02T10:15:20.083Z,13.10
2018-02-02T10:16:20.021Z,15.60
2018-02-02T10:17:19.985Z,14.30
2018-02-02T10:18:19.945Z,17.50
2018-02-02T10:19:19.903Z,14.90
2018-02-02T10:20:19.858Z,16.60
2018-02-02T10:21:19.819Z,15.50
2018-02-02T10:22:19.780Z,14.50
2018-02-02T10:23:19.742Z,14.50
2018-02-02T10:24:19.697Z,18.00
2018-02-02T10:25:19.660Z,12.90
2018-02-02T10:26:19.619Z,17.10
2018-02-02T10:27:19.602Z,14.00
2018-02-02T10:28:19.534Z,16.60
2018-02-02T10:29:19.496Z,16.70
2018-02-02T10:30:19.455Z,18.50
2018-02-02T10:31:19.416Z,17.10
2018-02-02T10:32:19.377Z,17.20
2018-02-02T10:33:19.337Z,17.40
2018-02-02T10:34:19.294Z,13.80
2018-02-02T10:35:19.258Z,20.70
2018-02-02T10:36:19.215Z,22.00
2018-02-02T10:37:19.172Z,22.10
2018-02-02T10:38:19.134Z,19.90
2018-02-02T10:39:19.120Z,23.60
2018-02-02T10:40:19.053Z,18.00
2018-02-02T10:41:19.014Z,20.80
2018-02-02T10:42:18.974Z,22.40
2018-02-02T10:43:18.989Z,20.70
2018-02-02T10:44:18.894Z,18.30
2018-02-02T10:45:18.853Z,22.60
2018-02-02T10:46:18.814Z,23.20
2018-02-02T10:47:18.773Z,29.90
2018-02-02T10:48:18.732Z,27.80
2018-02-02T10:49:18.693Z,28.80
2018-02-02T10:50:18.651Z,26.50
2018-02-02T10:51:18.614Z,26.30
2018-02-02T10:52:18.574Z,33.70
2018-02-02T10:53:18.538Z,28.70
2018-02-02T10:54:18.494Z,29.00
2018-02-02T10:55:18.453Z,28.30
2018-02-02T10:56:18.409Z,32.00
2018-02-02T10:57:18.371Z,29.90
2018-02-02T10:58:18.333Z,32.10
2018-02-02T10:59:18.291Z,25.70
2018-02-02T11:00:18.278Z,23.80
2018-02-02T11:01:18.214Z,27.40
2018-02-02T11:02:18.174Z,28.70
2018-02-02T11:03:18.132Z,23.50
2018-02-02T11:04:18.096Z,29.90
2018-02-02T11:05:18.056Z,32.10
2018-02-02T11:06:18.016Z,30.70
2018-02-02T11:07:17.971Z,27.60
2018-02-02T11:08:17.937Z,30.40
2018-02-02T11:09:17.893Z,25.10
2018-02-02T11:10:17.856Z,28.70
2018-02-02T11:11:17.817Z,29.30
2018-02-02T11:12:17.777Z,29.90
2018-02-02T11:13:17.738Z,36.00
2018-02-02T11:14:17.700Z,30.00
2018-02-02T11:15:17.659Z,26.30
2018-02-02T11:16:17.618Z,36.10
2018-02-02T11:17:17.581Z,28.80
2018-02-02T11:18:17.545Z,36.10
2018-02-02T11:19:17.503Z,41.20
2018-02-02T11:20:17.461Z,27.90
2018-02-02T11:21:17.423Z,29.90
2018-02-02T11:22:17.394Z,33.90
2018-02-02T11:23:17.346Z,27.00
2018-02-02T11:24:17.306Z,23.40
2018-02-02T11:25:17.267Z,26.30
2018-02-02T11:26:17.227Z,25.70
2018-02-02T11:27:17.188Z,32.80
2018-02-02T11:28:17.148Z,28.40
2018-02-02T11:29:17.109Z,28.00
2018-02-02T11:30:17.069Z,22.30
2018-02-02T11:31:17.029Z,24.00
2018-02-02T11:32:16.993Z,25.60
2018-02-02T11:33:16.954Z,27.50
2018-02-02T11:34:16.913Z,24.00
2018-02-02T11:35:16.875Z,20.10
2018-02-02T11:36:16.835Z,22.60
2018-02-02T11:37:16.796Z,23.30
2018-02-02T11:38:16.756Z,28.60
2018-02-02T11:39:16.718Z,27.90
2018-02-02T11:40:16.677Z,29.90
2018-02-02T11:41:16.639Z,21.50
2018-02-02T11:42:16.602Z,22.20
2018-02-02T11:43:16.561Z,22.90
2018-02-02T11:44:16.521Z,25.10
2018-02-02T11:45:16.483Z,28.20
2018-02-02T11:46:16.444Z,22.20
2018-02-02T11:47:16.406Z,27.90
2018-02-02T11:48:16.368Z,22.90
2018-02-02T11:49:16.325Z,18.40
2018-02-02T11:50:16.288Z,20.90
2018-02-02T11:51:16.250Z,20.30
2018-02-02T11:52:16.219Z,27.20
2018-02-02T11:53:16.207Z,18.50
2018-02-02T11:54:16.132Z,19.40
2018-02-02T11:55:16.091Z,22.10
2018-02-02T11:56:16.054Z,15.90
2018-02-02T11:57:16.012Z,13.90
2018-02-02T11:58:15.975Z,22.00
2018-02-02T11:59:15.934Z,16.30
2018-02-02T12:00:15.896Z,20.10
2018-02-02T12:01:15.858Z,16.00
2018-02-02T12:02:15.820Z,17.00
2018-02-02T12:03:15.778Z,13.50
2018-02-02T12:04:15.736Z,20.30
2018-02-02T12:05:15.702Z,19.10
2018-02-02T12:06:15.661Z,14.50
2018-02-02T12:07:15.623Z,20.90
2018-02-02T12:08:15.584Z,19.00
2018-02-02T12:09:15.543Z,20.90
2018-02-02T12:10:15.505Z,23.50
2018-02-02T12:11:15.468Z,18.00
2018-02-02T12:12:15.433Z,15.80
2018-02-02T12:13:15.389Z,16.90
2018-02-02T12:14:15.352Z,20.60
2018-02-02T12:15:15.314Z,22.20
2018-02-02T12:16:15.271Z,25.90
2018-02-02T12:17:15.234Z,12.90
2018-02-02T12:18:15.196Z,21.60
2018-02-02T12:19:15.154Z,18.30
2018-02-02T12:20:15.120Z,16.20
2018-02-02T12:21:15.079Z,19.30
2018-02-02T12:22:15.039Z,16.70
2018-02-02T12:23:15.002Z,12.00
2018-02-02T12:24:14.965Z,8.80
2018-02-02T12:25:14.927Z,12.30
2018-02-02T12:26:14.889Z,12.10
2018-02-02T12:27:14.853Z,10.30
2018-02-02T12:28:14.812Z,9.40
2018-02-02T12:29:14.775Z,16.90
2018-02-02T12:30:14.736Z,16.10
2018-02-02T12:31:14.702Z,12.40
2018-02-02T12:32:14.659Z,8.80
2018-02-02T12:33:14.618Z,12.60
2018-02-02T12:34:14.583Z,17.70
2018-02-02T12:35:14.544Z,13.70
2018-02-02T12:36:14.506Z,13.20
2018-02-02T12:37:14.466Z,18.60
2018-02-02T12:38:14.428Z,9.30
2018-02-02T12:39:14.388Z,13.00
2018-02-02T12:40:14.348Z,11.20
2018-02-02T12:41:14.310Z,14.10
2018-02-02T12:42:14.273Z,12.40
2018-02-02T12:43:14.234Z,13.50
2018-02-02T12:44:14.198Z,14.20
2018-02-02T12:45:14.158Z,11.10
2018-02-02T12:46:14.118Z,13.80
2018-02-02T12:47:14.081Z,11.10
2018-02-02T12:48:14.042Z,8.10
2018-02-02T12:49:14.001Z,7.40
2018-02-02T12:50:13.970Z,9.10
2018-02-02T12:51:13.928Z,6.10
2018-02-02T12:52:13.892Z,7.60
2018-02-02T12:53:13.852Z,6.50
2018-02-02T12:54:13.813Z,7.40
2018-02-02T12:55:13.774Z,7.80